createdAt,value
2023-03-26T00:01:15.524Z,10.28
2023-03-26T00:03:47.151Z,10.27
2023-03-26T00:06:16.095Z,10.25
2023-03-26T00:08:45.176Z,10.24
2023-03-26T00:11:14.923Z,10.10
2023-03-26T00:13:43.729Z,10.04
2023-03-26T00:16:19.719Z,9.99
2023-03-26T00:18:48.895Z,10.00
2023-03-26T00:21:18.702Z,10.04
2023-03-26T00:23:46.098Z,10.06
2023-03-26T00:26:12.875Z,10.16
2023-03-26T00:28:41.496Z,10.08
2023-03-26T00:31:13.963Z,10.05
2023-03-26T00:33:41.980Z,10.02
2023-03-26T00:36:15.153Z,9.94
2023-03-26T00:38:43.301Z,9.93
2023-03-26T00:41:22.711Z,9.81
2023-03-26T00:43:51.903Z,9.79
2023-03-26T00:46:19.010Z,9.79
2023-03-26T00:48:46.560Z,9.86
2023-03-26T00:51:15.832Z,9.81
2023-03-26T00:53:44.981Z,9.75
2023-03-26T00:56:13.043Z,9.68
2023-03-26T00:58:40.625Z,9.65
2023-03-26T01:01:13.762Z,9.67
2023-03-26T01:03:52.987Z,9.73
2023-03-26T01:06:27.970Z,9.76
2023-03-26T01:09:00.313Z,9.69
2023-03-26T01:11:32.003Z,9.62
2023-03-26T01:14:06.320Z,9.60
2023-03-26T01:16:41.617Z,9.59
2023-03-26T01:19:16.435Z,9.63
2023-03-26T01:21:43.258Z,9.56
2023-03-26T01:24:10.519Z,9.51
2023-03-26T01:26:52.826Z,9.42
2023-03-26T01:29:29.781Z,9.37
2023-03-26T01:32:15.108Z,9.39
2023-03-26T01:35:19.457Z,9.37
2023-03-26T01:37:52.644Z,9.29
2023-03-26T01:40:57.877Z,9.22
2023-03-26T01:43:39.593Z,9.20
2023-03-26T01:46:09.407Z,9.12
2023-03-26T01:48:39.458Z,9.10
2023-03-26T01:51:07.312Z,9.12
2023-03-26T01:53:37.532Z,9.12
2023-03-26T01:56:22.548Z,9.12
2023-03-26T01:59:08.306Z,9.11
2023-03-26T02:02:04.894Z,9.07
2023-03-26T02:04:53.081Z,9.05
2023-03-26T02:07:44.778Z,9.03
2023-03-26T02:10:21.048Z,8.97
2023-03-26T02:12:47.828Z,8.90
2023-03-26T02:15:14.479Z,8.92
2023-03-26T02:17:41.299Z,8.90
2023-03-26T02:20:10.583Z,8.91
2023-03-26T02:22:41.727Z,8.83
2023-03-26T02:25:15.502Z,8.86
2023-03-26T02:27:43.235Z,8.83
2023-03-26T02:30:16.186Z,8.79
2023-03-26T02:32:45.558Z,8.77
2023-03-26T02:35:13.401Z,8.81
2023-03-26T02:37:42.134Z,8.79
2023-03-26T02:40:14.990Z,8.77
2023-03-26T02:42:44.475Z,8.61
2023-03-26T02:45:11.382Z,8.53
2023-03-26T02:48:00.880Z,8.66
2023-03-26T02:50:54.136Z,8.69
2023-03-26T02:53:37.640Z,8.66
2023-03-26T02:56:25.407Z,8.57
2023-03-26T02:59:12.262Z,8.50
2023-03-26T03:01:43.073Z,8.08
2023-03-26T03:04:12.990Z,8.21
2023-03-26T03:06:40.580Z,8.34
2023-03-26T03:09:11.479Z,8.37
2023-03-26T03:11:40.738Z,8.38
2023-03-26T03:14:08.314Z,8.42
2023-03-26T03:16:35.482Z,8.47
2023-03-26T03:19:06.508Z,8.47
2023-03-26T03:21:37.918Z,8.48
2023-03-26T03:24:05.565Z,8.43
2023-03-26T03:26:41.252Z,8.43
2023-03-26T03:29:19.468Z,8.43
2023-03-26T03:31:46.447Z,8.41
2023-03-26T03:34:27.614Z,8.42
2023-03-26T03:36:54.280Z,8.50
2023-03-26T03:39:31.393Z,8.44
2023-03-26T03:41:58.157Z,8.37
2023-03-26T03:44:24.805Z,8.34
2023-03-26T03:46:54.092Z,8.29
2023-03-26T03:49:22.430Z,8.26
2023-03-26T03:51:49.186Z,8.15
2023-03-26T03:54:25.148Z,8.32
2023-03-26T03:57:24.211Z,8.31
2023-03-26T04:00:00.683Z,8.25
2023-03-26T04:02:43.124Z,8.25
2023-03-26T04:05:11.977Z,8.18
2023-03-26T04:07:45.236Z,8.10
2023-03-26T04:10:43.760Z,7.73
2023-03-26T04:13:17.154Z,7.71
2023-03-26T04:16:10.462Z,7.76
2023-03-26T04:18:38.295Z,7.78
2023-03-26T04:21:12.795Z,7.82
2023-03-26T04:23:40.012Z,7.82
2023-03-26T04:26:19.822Z,7.76
2023-03-26T04:29:11.917Z,7.70
2023-03-26T04:31:38.860Z,7.79
2023-03-26T04:34:13.584Z,7.80
2023-03-26T04:36:54.881Z,7.73
2023-03-26T04:39:29.436Z,7.70
2023-03-26T04:42:15.363Z,7.71
2023-03-26T04:44:59.693Z,7.73
2023-03-26T04:47:29.030Z,7.73
2023-03-26T04:49:55.887Z,7.56
2023-03-26T04:52:22.886Z,7.54
2023-03-26T04:55:19.604Z,7.45
2023-03-26T04:57:55.627Z,7.43
2023-03-26T05:00:43.229Z,7.48
2023-03-26T05:03:11.671Z,7.48
2023-03-26T05:05:40.044Z,7.41
2023-03-26T05:08:07.783Z,7.35
2023-03-26T05:10:34.456Z,7.36
2023-03-26T05:13:09.882Z,7.33
2023-03-26T05:15:39.624Z,7.38
2023-03-26T05:18:13.441Z,7.49
2023-03-26T05:20:47.561Z,7.52
2023-03-26T05:23:14.478Z,7.58
2023-03-26T05:25:44.244Z,7.57
2023-03-26T05:28:15.584Z,7.53
2023-03-26T05:30:55.007Z,7.45
2023-03-26T05:33:24.546Z,7.45
2023-03-26T05:36:09.325Z,7.40
2023-03-26T05:38:37.143Z,7.41
2023-03-26T05:41:08.360Z,7.35
2023-03-26T05:43:37.479Z,7.34
2023-03-26T05:46:12.132Z,7.35
2023-03-26T05:48:39.274Z,7.29
2023-03-26T05:51:06.830Z,7.36
2023-03-26T05:53:34.278Z,7.41
2023-03-26T05:56:19.332Z,7.43
2023-03-26T05:59:04.922Z,7.37
2023-03-26T06:01:34.717Z,7.36
2023-03-26T06:04:21.394Z,7.49
2023-03-26T06:07:16.866Z,7.51
2023-03-26T06:09:49.661Z,7.53
2023-03-26T06:12:16.834Z,7.55
2023-03-26T06:14:43.968Z,7.57
2023-03-26T06:17:22.464Z,7.53
2023-03-26T06:20:16.107Z,7.71
2023-03-26T06:22:46.492Z,7.86
2023-03-26T06:25:19.701Z,7.95
2023-03-26T06:27:54.682Z,7.95
2023-03-26T06:30:44.590Z,8.06
2023-03-26T06:33:31.226Z,8.03
2023-03-26T06:36:00.400Z,8.09
2023-03-26T06:38:27.357Z,8.30
2023-03-26T06:40:54.507Z,8.41
2023-03-26T06:43:27.240Z,8.40
2023-03-26T06:45:53.892Z,8.50
2023-03-26T06:48:46.679Z,8.59
2023-03-26T06:51:13.502Z,8.64
2023-03-26T06:54:00.490Z,8.66
2023-03-26T06:56:43.424Z,8.69
2023-03-26T06:59:28.631Z,8.75
2023-03-26T07:02:14.122Z,8.83
2023-03-26T07:04:59.557Z,8.85
2023-03-26T07:07:46.676Z,8.94
2023-03-26T07:10:19.975Z,8.99
2023-03-26T07:13:04.281Z,8.99
2023-03-26T07:15:51.461Z,9.03
2023-03-26T07:18:43.781Z,8.96
2023-03-26T07:21:17.227Z,8.79
2023-03-26T07:23:44.293Z,8.84
2023-03-26T07:27:18.894Z,8.82
2023-03-26T07:29:52.279Z,8.88
2023-03-26T07:33:00.259Z,8.91
2023-03-26T07:35:52.007Z,8.92
2023-03-26T07:38:53.888Z,9.05
2023-03-26T07:42:09.799Z,8.92
2023-03-26T07:45:33.934Z,8.98
2023-03-26T07:48:29.649Z,9.07
2023-03-26T07:51:00.237Z,9.15
2023-03-26T07:53:45.586Z,9.28
2023-03-26T07:56:36.397Z,9.43
2023-03-26T07:59:39.038Z,9.50
2023-03-26T08:02:30.561Z,9.59
2023-03-26T08:05:21.555Z,9.65
2023-03-26T08:08:20.749Z,9.59
2023-03-26T08:11:28.244Z,9.58
2023-03-26T08:14:44.283Z,9.54
2023-03-26T08:17:21.034Z,9.61
2023-03-26T08:19:51.523Z,9.75
2023-03-26T08:22:27.378Z,9.85
2023-03-26T08:25:11.957Z,9.98
2023-03-26T08:27:43.365Z,9.90
2023-03-26T08:30:20.446Z,9.99
2023-03-26T08:32:56.558Z,10.00
2023-03-26T08:35:25.387Z,10.07
2023-03-26T08:37:52.198Z,10.05
2023-03-26T08:40:39.128Z,10.08
2023-03-26T08:43:19.684Z,10.08
2023-03-26T08:46:20.377Z,10.14
2023-03-26T08:49:09.789Z,10.21
2023-03-26T08:51:39.332Z,10.23
2023-03-26T08:54:08.757Z,10.22
2023-03-26T08:56:47.643Z,10.31
2023-03-26T09:00:02.858Z,10.39
2023-03-26T09:03:07.343Z,10.47
2023-03-26T09:05:55.675Z,10.39
2023-03-26T09:08:53.899Z,10.36
2023-03-26T09:11:30.275Z,10.33
2023-03-26T09:14:24.698Z,10.31
2023-03-26T09:17:13.297Z,10.35
2023-03-26T09:20:24.675Z,10.34
2023-03-26T09:23:09.883Z,10.38
2023-03-26T09:26:11.732Z,10.40
2023-03-26T09:29:01.356Z,10.45
2023-03-26T09:31:58.002Z,10.54
2023-03-26T09:34:54.967Z,10.59
2023-03-26T09:37:33.777Z,10.63
2023-03-26T09:40:05.090Z,10.64
2023-03-26T09:42:34.658Z,10.66
2023-03-26T09:45:16.121Z,10.73
2023-03-26T09:47:48.879Z,10.89
2023-03-26T09:50:42.554Z,10.87
2023-03-26T09:53:21.136Z,10.81
2023-03-26T09:56:00.268Z,10.83
2023-03-26T09:58:41.402Z,11.03
2023-03-26T10:01:26.352Z,11.16
2023-03-26T10:04:12.043Z,11.07
2023-03-26T10:07:12.834Z,10.99
2023-03-26T10:09:56.062Z,10.95
2023-03-26T10:12:51.030Z,11.00
2023-03-26T10:15:17.956Z,11.07
2023-03-26T10:18:29.197Z,11.03
2023-03-26T10:21:24.904Z,10.98
2023-03-26T10:24:07.670Z,11.03
2023-03-26T10:27:10.772Z,11.10
2023-03-26T10:29:57.747Z,11.19
2023-03-26T10:32:33.673Z,11.26
2023-03-26T10:35:06.240Z,11.31
2023-03-26T10:38:00.911Z,11.45
2023-03-26T10:40:43.802Z,11.48
2023-03-26T10:43:49.793Z,11.52
2023-03-26T10:46:38.212Z,11.50
2023-03-26T10:49:41.031Z,11.51
2023-03-26T10:52:13.077Z,11.67
2023-03-26T10:54:48.602Z,11.66
2023-03-26T10:57:33.971Z,11.72
2023-03-26T11:00:20.661Z,11.78
2023-03-26T11:03:08.200Z,11.74
2023-03-26T11:05:38.103Z,11.85
2023-03-26T11:08:21.196Z,11.89
2023-03-26T11:11:11.114Z,11.80
2023-03-26T11:13:45.563Z,11.81
2023-03-26T11:16:33.889Z,11.80
2023-03-26T11:19:13.470Z,11.73
2023-03-26T11:21:56.732Z,11.70
2023-03-26T11:24:55.897Z,11.71
2023-03-26T11:27:26.570Z,11.68
2023-03-26T11:30:02.520Z,11.58
2023-03-26T11:32:51.597Z,11.38
2023-03-26T11:35:40.923Z,11.22
2023-03-26T11:38:32.874Z,11.13
2023-03-26T11:41:03.654Z,11.07
2023-03-26T11:43:52.990Z,10.99
2023-03-26T11:46:22.954Z,10.98
2023-03-26T11:48:58.224Z,10.92
2023-03-26T11:51:31.913Z,10.94
2023-03-26T11:54:00.063Z,10.88
2023-03-26T11:56:32.110Z,10.93
2023-03-26T11:59:05.562Z,10.98
2023-03-26T12:01:50.680Z,10.92
2023-03-26T12:04:35.317Z,10.97
2023-03-26T12:07:18.145Z,10.83
2023-03-26T12:09:57.928Z,10.78
2023-03-26T12:12:47.543Z,10.92
2023-03-26T12:15:16.597Z,10.87
2023-03-26T12:17:43.445Z,10.68
2023-03-26T12:20:25.258Z,10.72
2023-03-26T12:22:53.844Z,10.77
2023-03-26T12:25:25.916Z,10.72
2023-03-26T12:28:05.959Z,10.84
2023-03-26T12:30:37.221Z,10.92
2023-03-26T12:33:29.387Z,10.90
2023-03-26T12:36:00.600Z,10.83
2023-03-26T12:38:34.653Z,10.75
2023-03-26T12:42:25.837Z,10.70
2023-03-26T12:44:53.354Z,10.69
2023-03-26T12:48:00.105Z,10.63
2023-03-26T12:50:16.609Z,10.58
2023-03-26T12:52:59.176Z,10.70
2023-03-26T12:55:31.808Z,10.72
2023-03-26T12:58:20.150Z,10.71
2023-03-26T13:01:11.199Z,10.60
2023-03-26T13:04:13.529Z,10.58
2023-03-26T13:07:00.710Z,10.51
2023-03-26T13:09:32.933Z,10.70
2023-03-26T13:12:18.253Z,10.68
2023-03-26T13:14:50.700Z,10.64
2023-03-26T13:17:26.936Z,10.64
2023-03-26T13:20:12.587Z,10.66
2023-03-26T13:22:58.474Z,10.70
2023-03-26T13:25:47.850Z,10.75
2023-03-26T13:28:17.333Z,10.71
2023-03-26T13:30:53.554Z,10.70
2023-03-26T13:33:41.020Z,10.80
2023-03-26T13:36:24.313Z,10.74
2023-03-26T13:39:10.755Z,10.77
2023-03-26T13:42:07.719Z,10.72
2023-03-26T13:45:04.979Z,10.65
2023-03-26T13:47:41.242Z,10.62
2023-03-26T13:50:15.757Z,10.59
2023-03-26T13:52:53.061Z,10.59
2023-03-26T13:55:41.061Z,10.69
2023-03-26T13:58:11.072Z,10.82
2023-03-26T14:00:58.235Z,10.76
2023-03-26T14:03:37.419Z,10.78
2023-03-26T14:06:10.782Z,10.76
2023-03-26T14:08:44.811Z,10.78
2023-03-26T14:11:18.243Z,10.72
2023-03-26T14:14:10.258Z,10.73
2023-03-26T14:16:45.793Z,10.71
2023-03-26T14:19:26.766Z,10.60
2023-03-26T14:21:56.371Z,10.65
2023-03-26T14:25:01.780Z,10.57
2023-03-26T14:27:46.358Z,10.55
2023-03-26T14:30:25.563Z,10.42
2023-03-26T14:33:04.404Z,10.40
2023-03-26T14:35:42.967Z,10.33
2023-03-26T14:38:34.926Z,10.37
2023-03-26T14:41:38.953Z,10.32
2023-03-26T14:44:48.202Z,10.28
2023-03-26T14:47:21.578Z,10.19
2023-03-26T14:50:04.152Z,10.19
2023-03-26T14:52:51.568Z,10.14
2023-03-26T14:55:30.054Z,10.20
2023-03-26T14:58:27.882Z,10.26
2023-03-26T15:01:06.780Z,10.28
2023-03-26T15:03:55.140Z,10.35
2023-03-26T15:06:42.163Z,10.38
2023-03-26T15:09:30.133Z,10.36
2023-03-26T15:12:30.617Z,10.33
2023-03-26T15:15:26.394Z,10.38
2023-03-26T15:18:14.702Z,10.34
2023-03-26T15:21:04.335Z,10.32
2023-03-26T15:24:09.783Z,10.26
2023-03-26T15:26:57.108Z,10.38
2023-03-26T15:29:38.513Z,10.38
2023-03-26T15:32:30.198Z,10.41
2023-03-26T15:35:30.648Z,10.35
2023-03-26T15:38:34.660Z,10.39
2023-03-26T15:41:46.993Z,10.50
2023-03-26T15:44:40.881Z,10.65
2023-03-26T15:47:28.322Z,10.88
2023-03-26T15:50:36.549Z,11.19
2023-03-26T15:53:33.660Z,11.50
2023-03-26T15:56:07.428Z,11.51
2023-03-26T15:58:51.970Z,11.64
2023-03-26T16:01:34.013Z,11.69
2023-03-26T16:04:34.512Z,11.77
2023-03-26T16:07:21.907Z,11.84
2023-03-26T16:10:00.739Z,11.76
2023-03-26T16:12:34.483Z,11.77
2023-03-26T16:15:21.082Z,11.82
2023-03-26T16:18:11.741Z,11.94
2023-03-26T16:20:53.971Z,11.83
2023-03-26T16:23:53.819Z,11.97
2023-03-26T16:26:52.433Z,11.91
2023-03-26T16:29:22.368Z,11.85
2023-03-26T16:32:07.498Z,11.87
2023-03-26T16:34:48.235Z,11.83
2023-03-26T16:37:36.715Z,11.73
2023-03-26T16:40:35.956Z,11.59
2023-03-26T16:43:17.816Z,11.54
2023-03-26T16:45:44.515Z,11.51
2023-03-26T16:48:17.322Z,11.42
2023-03-26T16:50:52.193Z,11.34
2023-03-26T16:53:46.005Z,11.33
2023-03-26T16:56:23.973Z,11.30
2023-03-26T16:58:58.656Z,11.14
2023-03-26T17:01:46.527Z,11.10
2023-03-26T17:04:24.588Z,11.10
2023-03-26T17:07:03.496Z,10.99
2023-03-26T17:09:51.652Z,10.89
2023-03-26T17:12:33.675Z,10.95
2023-03-26T17:15:06.509Z,10.90
2023-03-26T17:18:02.322Z,10.90
2023-03-26T17:20:44.013Z,10.88
2023-03-26T17:23:51.754Z,10.72
2023-03-26T17:26:39.638Z,10.74
2023-03-26T17:29:44.919Z,10.71
2023-03-26T17:32:15.021Z,10.64
2023-03-26T17:34:54.215Z,10.61
2023-03-26T17:37:23.556Z,10.66
2023-03-26T17:39:50.397Z,10.66
2023-03-26T17:42:35.540Z,10.68
2023-03-26T17:45:15.509Z,10.71
2023-03-26T17:47:58.936Z,10.62
2023-03-26T17:50:48.963Z,10.39
2023-03-26T17:53:28.305Z,10.35
2023-03-26T17:55:58.360Z,10.35
2023-03-26T17:58:31.801Z,10.33
2023-03-26T18:01:22.444Z,10.24
2023-03-26T18:03:54.401Z,10.18
2023-03-26T18:06:51.627Z,10.10
2023-03-26T18:10:02.045Z,9.86
2023-03-26T18:12:34.486Z,9.92
2023-03-26T18:15:29.009Z,9.85
2023-03-26T18:18:19.729Z,9.82
2023-03-26T18:20:49.402Z,9.81
2023-03-26T18:23:37.382Z,9.53
2023-03-26T18:26:14.132Z,9.63
2023-03-26T18:28:44.069Z,9.60
2023-03-26T18:31:26.175Z,9.28
2023-03-26T18:34:03.136Z,9.10
2023-03-26T18:36:31.028Z,9.10
2023-03-26T18:39:03.253Z,9.01
2023-03-26T18:41:41.737Z,9.08
2023-03-26T18:44:15.132Z,9.20
2023-03-26T18:46:42.749Z,9.34
2023-03-26T18:49:13.383Z,9.43
2023-03-26T18:51:54.055Z,9.47
2023-03-26T18:54:23.610Z,9.50
2023-03-26T18:56:52.140Z,9.48
2023-03-26T18:59:35.214Z,9.46
2023-03-26T19:02:16.325Z,9.54
2023-03-26T19:04:46.268Z,9.54
2023-03-26T19:07:24.884Z,9.50
2023-03-26T19:09:56.355Z,9.47
2023-03-26T19:12:28.680Z,9.45
2023-03-26T19:15:09.528Z,9.35
2023-03-26T19:17:49.416Z,9.26
2023-03-26T19:20:24.167Z,9.17
2023-03-26T19:22:51.002Z,9.08
2023-03-26T19:25:43.140Z,9.15
2023-03-26T19:28:25.712Z,8.97
2023-03-26T19:30:56.337Z,8.78
2023-03-26T19:33:25.604Z,8.69
2023-03-26T19:36:02.085Z,8.55
2023-03-26T19:38:38.004Z,8.54
2023-03-26T19:41:05.802Z,8.43
2023-03-26T19:43:32.543Z,8.47
2023-03-26T19:46:01.267Z,8.23
2023-03-26T19:48:45.629Z,8.42
2023-03-26T19:51:20.230Z,8.46
2023-03-26T19:53:55.804Z,8.47
2023-03-26T19:56:23.081Z,8.54
2023-03-26T19:58:52.949Z,8.59
2023-03-26T20:01:26.993Z,8.66
2023-03-26T20:04:00.703Z,8.60
2023-03-26T20:06:42.324Z,8.12
2023-03-26T20:09:12.469Z,8.18
2023-03-26T20:11:39.910Z,8.20
2023-03-26T20:14:15.913Z,8.31
2023-03-26T20:16:45.225Z,8.38
2023-03-26T20:19:14.296Z,8.50
2023-03-26T20:21:41.647Z,8.51
2023-03-26T20:24:16.917Z,8.57
2023-03-26T20:26:45.157Z,8.61
2023-03-26T20:29:13.018Z,8.59
2023-03-26T20:31:41.635Z,8.61
2023-03-26T20:34:20.669Z,8.58
2023-03-26T20:36:48.086Z,8.48
2023-03-26T20:39:14.890Z,8.55
2023-03-26T20:41:45.578Z,8.50
2023-03-26T20:44:15.718Z,8.40
2023-03-26T20:46:43.929Z,8.32
2023-03-26T20:49:11.712Z,8.26
2023-03-26T20:51:41.894Z,8.13
2023-03-26T20:54:30.341Z,8.15
2023-03-26T20:56:58.102Z,8.01
2023-03-26T20:59:27.590Z,7.69
2023-03-26T21:01:59.413Z,7.76
2023-03-26T21:04:27.053Z,7.81
2023-03-26T21:07:00.208Z,7.78
2023-03-26T21:09:34.076Z,7.68
2023-03-26T21:12:09.698Z,7.49
2023-03-26T21:14:41.170Z,7.28
2023-03-26T21:17:20.651Z,7.31
2023-03-26T21:19:49.252Z,7.44
2023-03-26T21:23:13.170Z,7.60
2023-03-26T21:25:53.388Z,7.61
2023-03-26T21:28:48.772Z,7.58
2023-03-26T21:31:21.974Z,7.61
2023-03-26T21:33:49.989Z,7.54
2023-03-26T21:36:19.601Z,7.33
2023-03-26T21:38:47.158Z,7.42
2023-03-26T21:41:41.618Z,7.38
2023-03-26T21:44:08.720Z,7.40
2023-03-26T21:46:35.847Z,7.37
2023-03-26T21:49:02.832Z,7.32
2023-03-26T21:51:29.985Z,7.19
2023-03-26T21:53:56.968Z,7.20
2023-03-26T21:56:56.023Z,7.16
2023-03-26T21:59:36.400Z,7.14
2023-03-26T22:02:23.089Z,7.07
2023-03-26T22:04:57.162Z,7.14
2023-03-26T22:07:30.659Z,7.11
2023-03-26T22:09:57.610Z,7.11
2023-03-26T22:12:25.581Z,6.81
2023-03-26T22:14:53.459Z,6.80
2023-03-26T22:17:20.092Z,6.95
2023-03-26T22:19:46.860Z,7.03
2023-03-26T22:22:14.966Z,6.52
2023-03-26T22:24:41.681Z,6.69
2023-03-26T22:27:08.369Z,6.85
2023-03-26T22:29:35.233Z,6.92
2023-03-26T22:32:03.544Z,7.05
2023-03-26T22:34:31.658Z,7.05
2023-03-26T22:36:58.334Z,6.99
2023-03-26T22:39:25.239Z,7.09
2023-03-26T22:41:51.840Z,6.91
2023-03-26T22:44:20.535Z,6.96
2023-03-26T22:46:50.610Z,6.95
2023-03-26T22:49:17.858Z,7.01
2023-03-26T22:51:44.549Z,7.05
2023-03-26T22:54:11.527Z,7.04
2023-03-26T22:56:38.195Z,6.98
2023-03-26T22:59:05.125Z,6.99
2023-03-26T23:01:31.862Z,7.01
2023-03-26T23:03:58.767Z,6.88
2023-03-26T23:06:25.667Z,6.85
2023-03-26T23:08:52.435Z,6.83
2023-03-26T23:11:21.952Z,6.80
2023-03-26T23:13:49.317Z,6.75
2023-03-26T23:16:17.108Z,6.80
2023-03-26T23:18:44.192Z,6.77
2023-03-26T23:21:16.706Z,6.77
2023-03-26T23:23:43.461Z,6.57
2023-03-26T23:26:10.842Z,6.52
2023-03-26T23:28:38.318Z,6.47
2023-03-26T23:31:07.701Z,6.46
2023-03-26T23:33:37.119Z,6.46
2023-03-26T23:36:09.192Z,6.43
2023-03-26T23:38:43.442Z,6.33
2023-03-26T23:41:15.683Z,6.19
2023-03-26T23:43:54.241Z,6.10
2023-03-26T23:46:31.027Z,5.64
2023-03-26T23:49:03.467Z,5.30
2023-03-26T23:51:31.101Z,5.57
2023-03-26T23:53:58.462Z,5.62
2023-03-26T23:56:27.754Z,5.73
2023-03-26T23:58:55.229Z,5.93
